Terminal Aerodrome Forecast
Issued by NWS

Home | Current Version | Previous Version | Graphics & Text | Print | Product List | Glossary On
Versions: 1 2 3 4 5 6 7 8 9 10 11 12
410
FTUS43 KFGF 161727
TAFBJI
TAF
KBJI 161727Z 1618/1718 17008KT P6SM BKN200
     FM171200 20005KT P6SM BKN200=

USA.gov is the U.S. government's official web portal to all federal, state and local government web resources and services.